sensor_id;sensor_type;location;lat;lon;timestamp;pressure;altitude;pressure_sealevel;temperature;humidity
29315;BME280;16320;53.954;9.506;2023-08-08T00:01:41;100672.47;;;13.35;100.00
29315;BME280;16320;53.954;9.506;2023-08-08T00:04:48;100670.03;;;13.32;100.00
29315;BME280;16320;53.954;9.506;2023-08-08T00:07:54;100664.75;;;13.32;100.00
29315;BME280;16320;53.954;9.506;2023-08-08T00:10:58;100654.94;;;13.34;100.00
29315;BME280;16320;53.954;9.506;2023-08-08T00:14:02;100632.31;;;13.30;100.00
29315;BME280;16320;53.954;9.506;2023-08-08T00:17:07;100631.31;;;13.33;100.00
29315;BME280;16320;53.954;9.506;2023-08-08T00:20:11;100618.03;;;13.34;100.00
29315;BME280;16320;53.954;9.506;2023-08-08T00:23:16;100612.75;;;13.34;100.00
29315;BME280;16320;53.954;9.506;2023-08-08T00:26:20;100593.34;;;13.35;100.00
29315;BME280;16320;53.954;9.506;2023-08-08T00:29:25;100591.66;;;13.34;100.00
29315;BME280;16320;53.954;9.506;2023-08-08T00:32:29;100578.56;;;13.33;100.00
29315;BME280;16320;53.954;9.506;2023-08-08T00:35:34;100576.81;;;13.32;100.00
29315;BME280;16320;53.954;9.506;2023-08-08T00:38:38;100562.06;;;13.29;100.00
29315;BME280;16320;53.954;9.506;2023-08-08T00:41:43;100561.19;;;13.29;100.00
29315;BME280;16320;53.954;9.506;2023-08-08T00:44:48;100547.16;;;13.28;100.00
29315;BME280;16320;53.954;9.506;2023-08-08T00:47:53;100541.88;;;13.28;100.00
29315;BME280;16320;53.954;9.506;2023-08-08T00:50:59;100531.06;;;13.33;100.00
29315;BME280;16320;53.954;9.506;2023-08-08T00:54:04;100519.25;;;13.39;100.00
29315;BME280;16320;53.954;9.506;2023-08-08T00:57:09;100502.81;;;13.48;100.00
29315;BME280;16320;53.954;9.506;2023-08-08T01:00:13;100489.22;;;13.54;100.00
29315;BME280;16320;53.954;9.506;2023-08-08T01:03:18;100472.97;;;13.60;100.00
29315;BME280;16320;53.954;9.506;2023-08-08T01:06:37;100445.00;;;13.70;100.00
29315;BME280;16320;53.954;9.506;2023-08-08T01:13:09;100416.88;;;13.82;100.00
29315;BME280;16320;53.954;9.506;2023-08-08T01:16:15;100413.31;;;13.83;100.00
29315;BME280;16320;53.954;9.506;2023-08-08T01:19:27;100417.53;;;13.86;100.00
29315;BME280;16320;53.954;9.506;2023-08-08T01:26:08;100437.38;;;13.91;100.00
29315;BME280;16320;53.954;9.506;2023-08-08T01:29:13;100427.63;;;13.92;100.00
29315;BME280;16320;53.954;9.506;2023-08-08T01:32:17;100427.31;;;13.97;100.00
29315;BME280;16320;53.954;9.506;2023-08-08T01:35:22;100421.94;;;13.98;100.00
29315;BME280;16320;53.954;9.506;2023-08-08T01:38:37;100414.63;;;14.02;100.00
29315;BME280;16320;53.954;9.506;2023-08-08T01:41:44;100417.81;;;14.07;100.00
29315;BME280;16320;53.954;9.506;2023-08-08T01:44:53;100416.53;;;14.13;100.00
29315;BME280;16320;53.954;9.506;2023-08-08T01:47:57;100406.69;;;14.15;100.00
29315;BME280;16320;53.954;9.506;2023-08-08T01:51:05;100402.88;;;14.19;100.00
29315;BME280;16320;53.954;9.506;2023-08-08T01:54:10;100405.00;;;14.14;100.00
29315;BME280;16320;53.954;9.506;2023-08-08T01:57:14;100398.53;;;14.18;100.00
29315;BME280;16320;53.954;9.506;2023-08-08T02:00:19;100393.16;;;14.19;100.00
29315;BME280;16320;53.954;9.506;2023-08-08T02:03:24;100393.75;;;14.23;100.00
29315;BME280;16320;53.954;9.506;2023-08-08T02:06:30;100383.84;;;14.26;100.00
29315;BME280;16320;53.954;9.506;2023-08-08T02:09:34;100382.53;;;14.32;100.00
29315;BME280;16320;53.954;9.506;2023-08-08T02:12:38;100382.31;;;14.35;100.00
29315;BME280;16320;53.954;9.506;2023-08-08T02:15:46;100388.44;;;14.36;100.00
29315;BME280;16320;53.954;9.506;2023-08-08T02:18:50;100390.75;;;14.40;100.00
29315;BME280;16320;53.954;9.506;2023-08-08T02:21:55;100419.75;;;14.29;100.00
29315;BME280;16320;53.954;9.506;2023-08-08T02:25:00;100430.88;;;14.08;100.00
29315;BME280;16320;53.954;9.506;2023-08-08T02:28:04;100429.66;;;14.01;100.00
29315;BME280;16320;53.954;9.506;2023-08-08T02:31:09;100443.78;;;14.00;100.00
29315;BME280;16320;53.954;9.506;2023-08-08T02:34:13;100464.19;;;13.98;100.00
29315;BME280;16320;53.954;9.506;2023-08-08T02:37:17;100493.13;;;13.74;100.00
29315;BME280;16320;53.954;9.506;2023-08-08T02:40:21;100506.50;;;13.58;100.00
29315;BME280;16320;53.954;9.506;2023-08-08T02:43:27;100513.38;;;13.48;100.00
29315;BME280;16320;53.954;9.506;2023-08-08T02:46:32;100538.69;;;13.38;100.00
29315;BME280;16320;53.954;9.506;2023-08-08T02:49:37;100536.53;;;13.30;100.00
29315;BME280;16320;53.954;9.506;2023-08-08T02:52:41;100551.72;;;13.26;100.00
29315;BME280;16320;53.954;9.506;2023-08-08T02:55:47;100550.00;;;13.25;100.00
29315;BME280;16320;53.954;9.506;2023-08-08T02:58:51;100545.25;;;13.30;100.00
29315;BME280;16320;53.954;9.506;2023-08-08T03:01:56;100544.69;;;13.40;100.00
29315;BME280;16320;53.954;9.506;2023-08-08T03:05:00;100551.47;;;13.44;100.00
29315;BME280;16320;53.954;9.506;2023-08-08T03:08:05;100527.28;;;13.50;100.00
29315;BME280;16320;53.954;9.506;2023-08-08T03:11:10;100518.03;;;13.57;100.00
29315;BME280;16320;53.954;9.506;2023-08-08T03:14:15;100513.19;;;13.64;100.00
29315;BME280;16320;53.954;9.506;2023-08-08T03:17:20;100498.59;;;13.71;100.00
29315;BME280;16320;53.954;9.506;2023-08-08T03:20:24;100474.53;;;13.76;100.00
29315;BME280;16320;53.954;9.506;2023-08-08T03:23:30;100457.44;;;13.81;100.00
29315;BME280;16320;53.954;9.506;2023-08-08T03:26:34;100440.31;;;13.87;100.00
29315;BME280;16320;53.954;9.506;2023-08-08T03:29:39;100413.50;;;13.93;100.00
29315;BME280;16320;53.954;9.506;2023-08-08T03:32:43;100405.88;;;14.01;100.00
29315;BME280;16320;53.954;9.506;2023-08-08T03:35:47;100394.16;;;14.05;100.00
29315;BME280;16320;53.954;9.506;2023-08-08T03:38:53;100389.72;;;14.06;100.00
29315;BME280;16320;53.954;9.506;2023-08-08T03:41:57;100387.91;;;14.06;100.00
29315;BME280;16320;53.954;9.506;2023-08-08T03:45:02;100386.97;;;14.07;100.00
29315;BME280;16320;53.954;9.506;2023-08-08T03:48:08;100394.78;;;14.09;100.00
29315;BME280;16320;53.954;9.506;2023-08-08T03:51:12;100398.56;;;14.05;100.00
29315;BME280;16320;53.954;9.506;2023-08-08T03:54:19;100389.94;;;14.03;100.00
29315;BME280;16320;53.954;9.506;2023-08-08T03:57:23;100390.44;;;14.08;100.00
29315;BME280;16320;53.954;9.506;2023-08-08T04:00:27;100386.97;;;14.07;100.00
29315;BME280;16320;53.954;9.506;2023-08-08T04:03:31;100382.19;;;14.13;100.00
29315;BME280;16320;53.954;9.506;2023-08-08T04:06:36;100396.13;;;14.15;100.00
29315;BME280;16320;53.954;9.506;2023-08-08T04:09:41;100418.09;;;14.15;100.00
29315;BME280;16320;53.954;9.506;2023-08-08T04:12:49;100439.47;;;13.99;100.00
29315;BME280;16320;53.954;9.506;2023-08-08T04:15:53;100468.53;;;13.86;100.00
29315;BME280;16320;53.954;9.506;2023-08-08T04:18:59;100488.91;;;13.71;100.00
29315;BME280;16320;53.954;9.506;2023-08-08T04:22:06;100507.06;;;13.63;100.00
29315;BME280;16320;53.954;9.506;2023-08-08T04:25:11;100524.78;;;13.61;100.00
29315;BME280;16320;53.954;9.506;2023-08-08T04:28:16;100537.44;;;13.56;100.00
29315;BME280;16320;53.954;9.506;2023-08-08T04:31:20;100552.53;;;13.54;100.00
29315;BME280;16320;53.954;9.506;2023-08-08T04:34:28;100574.59;;;13.53;100.00
29315;BME280;16320;53.954;9.506;2023-08-08T04:37:33;100575.22;;;13.44;100.00
29315;BME280;16320;53.954;9.506;2023-08-08T04:40:38;100587.31;;;13.33;100.00
29315;BME280;16320;53.954;9.506;2023-08-08T04:43:43;100581.47;;;13.28;100.00
29315;BME280;16320;53.954;9.506;2023-08-08T04:46:48;100590.31;;;13.27;100.00
29315;BME280;16320;53.954;9.506;2023-08-08T04:49:52;100583.56;;;13.23;100.00
29315;BME280;16320;53.954;9.506;2023-08-08T04:52:58;100579.41;;;13.19;100.00
29315;BME280;16320;53.954;9.506;2023-08-08T04:56:03;100580.56;;;13.15;100.00
29315;BME280;16320;53.954;9.506;2023-08-08T04:59:07;100594.59;;;13.15;100.00
29315;BME280;16320;53.954;9.506;2023-08-08T05:02:12;100589.59;;;13.11;100.00
29315;BME280;16320;53.954;9.506;2023-08-08T05:05:17;100597.16;;;13.03;100.00
29315;BME280;16320;53.954;9.506;2023-08-08T05:08:22;100588.53;;;13.00;100.00
29315;BME280;16320;53.954;9.506;2023-08-08T05:11:26;100598.41;;;12.97;100.00
29315;BME280;16320;53.954;9.506;2023-08-08T05:14:32;100600.75;;;13.02;100.00
29315;BME280;16320;53.954;9.506;2023-08-08T05:17:37;100609.88;;;13.10;100.00
29315;BME280;16320;53.954;9.506;2023-08-08T05:20:42;100617.28;;;13.18;100.00
29315;BME280;16320;53.954;9.506;2023-08-08T05:23:46;100609.94;;;13.23;100.00
29315;BME280;16320;53.954;9.506;2023-08-08T05:26:51;100603.19;;;13.32;100.00
29315;BME280;16320;53.954;9.506;2023-08-08T05:29:59;100605.19;;;13.43;100.00
29315;BME280;16320;53.954;9.506;2023-08-08T05:33:03;100589.69;;;13.51;100.00
29315;BME280;16320;53.954;9.506;2023-08-08T05:36:11;100583.47;;;13.52;100.00
29315;BME280;16320;53.954;9.506;2023-08-08T05:39:15;100582.41;;;13.54;100.00
29315;BME280;16320;53.954;9.506;2023-08-08T05:42:20;100580.19;;;13.61;100.00
29315;BME280;16320;53.954;9.506;2023-08-08T05:45:29;100587.72;;;13.67;100.00
29315;BME280;16320;53.954;9.506;2023-08-08T05:48:33;100575.69;;;13.63;100.00
29315;BME280;16320;53.954;9.506;2023-08-08T05:51:40;100586.88;;;13.67;100.00
29315;BME280;16320;53.954;9.506;2023-08-08T05:54:44;100585.81;;;13.69;100.00
29315;BME280;16320;53.954;9.506;2023-08-08T05:57:48;100589.41;;;13.68;100.00
29315;BME280;16320;53.954;9.506;2023-08-08T06:00:52;100601.34;;;13.74;100.00
29315;BME280;16320;53.954;9.506;2023-08-08T06:03:57;100609.16;;;13.76;100.00
29315;BME280;16320;53.954;9.506;2023-08-08T06:07:04;100614.97;;;13.81;100.00
29315;BME280;16320;53.954;9.506;2023-08-08T06:10:12;100623.47;;;13.86;100.00
29315;BME280;16320;53.954;9.506;2023-08-08T06:13:16;100625.56;;;13.94;100.00
29315;BME280;16320;53.954;9.506;2023-08-08T06:16:21;100629.59;;;13.99;100.00
29315;BME280;16320;53.954;9.506;2023-08-08T06:19:26;100629.59;;;13.99;100.00
29315;BME280;16320;53.954;9.506;2023-08-08T06:22:30;100609.09;;;13.90;100.00
29315;BME280;16320;53.954;9.506;2023-08-08T06:25:35;100587.47;;;14.10;100.00
29315;BME280;16320;53.954;9.506;2023-08-08T06:28:43;100550.13;;;14.28;100.00
29315;BME280;16320;53.954;9.506;2023-08-08T06:31:47;100521.34;;;14.49;100.00
29315;BME280;16320;53.954;9.506;2023-08-08T06:34:52;100518.38;;;14.67;100.00
29315;BME280;16320;53.954;9.506;2023-08-08T06:37:57;100487.28;;;14.70;100.00
29315;BME280;16320;53.954;9.506;2023-08-08T06:41:03;100476.66;;;14.83;100.00
29315;BME280;16320;53.954;9.506;2023-08-08T06:44:08;100444.19;;;14.81;100.00
29315;BME280;16320;53.954;9.506;2023-08-08T06:47:13;100400.88;;;14.95;100.00
29315;BME280;16320;53.954;9.506;2023-08-08T06:50:18;100361.47;;;15.03;100.00
29315;BME280;16320;53.954;9.506;2023-08-08T06:53:24;100344.50;;;15.06;100.00
29315;BME280;16320;53.954;9.506;2023-08-08T06:56:29;100327.22;;;15.13;100.00
29315;BME280;16320;53.954;9.506;2023-08-08T06:59:33;100321.56;;;15.17;100.00
29315;BME280;16320;53.954;9.506;2023-08-08T07:02:38;100323.00;;;15.33;100.00
29315;BME280;16320;53.954;9.506;2023-08-08T07:05:43;100326.38;;;15.46;100.00
29315;BME280;16320;53.954;9.506;2023-08-08T07:08:47;100362.00;;;15.42;100.00
29315;BME280;16320;53.954;9.506;2023-08-08T07:11:52;100388.22;;;15.34;100.00
29315;BME280;16320;53.954;9.506;2023-08-08T07:14:56;100346.13;;;15.42;100.00
29315;BME280;16320;53.954;9.506;2023-08-08T07:18:01;100297.59;;;15.64;100.00
29315;BME280;16320;53.954;9.506;2023-08-08T07:21:15;100279.72;;;15.79;100.00
29315;BME280;16320;53.954;9.506;2023-08-08T07:24:19;100268.47;;;15.75;100.00
29315;BME280;16320;53.954;9.506;2023-08-08T07:27:28;100261.28;;;15.78;100.00
29315;BME280;16320;53.954;9.506;2023-08-08T07:30:36;100264.28;;;15.84;100.00
29315;BME280;16320;53.954;9.506;2023-08-08T07:33:40;100281.38;;;15.80;100.00
29315;BME280;16320;53.954;9.506;2023-08-08T07:36:46;100281.81;;;15.74;100.00
29315;BME280;16320;53.954;9.506;2023-08-08T07:39:52;100301.13;;;15.76;100.00
29315;BME280;16320;53.954;9.506;2023-08-08T07:42:56;100333.34;;;15.70;100.00
29315;BME280;16320;53.954;9.506;2023-08-08T07:46:01;100359.34;;;15.53;100.00
29315;BME280;16320;53.954;9.506;2023-08-08T07:49:06;100396.19;;;15.56;100.00
29315;BME280;16320;53.954;9.506;2023-08-08T07:52:14;100437.41;;;15.48;100.00
29315;BME280;16320;53.954;9.506;2023-08-08T07:55:18;100471.84;;;15.12;100.00
29315;BME280;16320;53.954;9.506;2023-08-08T07:58:23;100485.63;;;14.56;100.00
29315;BME280;16320;53.954;9.506;2023-08-08T08:01:30;100505.59;;;14.10;100.00
29315;BME280;16320;53.954;9.506;2023-08-08T08:04:35;100517.00;;;13.98;100.00
29315;BME280;16320;53.954;9.506;2023-08-08T08:07:40;100542.34;;;14.14;100.00
29315;BME280;16320;53.954;9.506;2023-08-08T08:10:44;100561.97;;;14.22;100.00
29315;BME280;16320;53.954;9.506;2023-08-08T08:13:50;100586.06;;;14.18;100.00
29315;BME280;16320;53.954;9.506;2023-08-08T08:16:55;100590.31;;;14.07;100.00
29315;BME280;16320;53.954;9.506;2023-08-08T08:20:05;100585.22;;;14.04;100.00
29315;BME280;16320;53.954;9.506;2023-08-08T08:23:15;100593.34;;;14.01;100.00
29315;BME280;16320;53.954;9.506;2023-08-08T08:26:19;100588.81;;;14.03;100.00
29315;BME280;16320;53.954;9.506;2023-08-08T08:29:24;100586.69;;;14.08;100.00
29315;BME280;16320;53.954;9.506;2023-08-08T08:32:32;100598.13;;;14.09;100.00
29315;BME280;16320;53.954;9.506;2023-08-08T08:35:37;100602.66;;;14.33;100.00
29315;BME280;16320;53.954;9.506;2023-08-08T08:38:42;100625.47;;;14.46;100.00
29315;BME280;16320;53.954;9.506;2023-08-08T08:41:51;100627.41;;;14.44;100.00
29315;BME280;16320;53.954;9.506;2023-08-08T08:44:58;100629.50;;;14.39;100.00
29315;BME280;16320;53.954;9.506;2023-08-08T08:48:35;100622.00;;;14.33;100.00
29315;BME280;16320;53.954;9.506;2023-08-08T08:51:40;100634.03;;;14.37;100.00
29315;BME280;16320;53.954;9.506;2023-08-08T08:54:45;100639.13;;;14.40;100.00
29315;BME280;16320;53.954;9.506;2023-08-08T08:57:50;100642.94;;;14.36;100.00
29315;BME280;16320;53.954;9.506;2023-08-08T09:00:56;100641.44;;;14.32;100.00
29315;BME280;16320;53.954;9.506;2023-08-08T09:04:03;100643.97;;;14.08;100.00
29315;BME280;16320;53.954;9.506;2023-08-08T09:07:10;100656.81;;;13.87;100.00
29315;BME280;16320;53.954;9.506;2023-08-08T09:10:18;100652.84;;;13.67;100.00
29315;BME280;16320;53.954;9.506;2023-08-08T09:13:23;100667.28;;;13.61;100.00
29315;BME280;16320;53.954;9.506;2023-08-08T09:16:31;100689.84;;;13.52;100.00
29315;BME280;16320;53.954;9.506;2023-08-08T09:19:36;100696.09;;;13.37;100.00
29315;BME280;16320;53.954;9.506;2023-08-08T09:22:41;100693.06;;;13.29;100.00
29315;BME280;16320;53.954;9.506;2023-08-08T09:25:46;100691.03;;;13.34;100.00
29315;BME280;16320;53.954;9.506;2023-08-08T09:28:51;100706.72;;;13.50;100.00
29315;BME280;16320;53.954;9.506;2023-08-08T09:31:55;100723.41;;;13.50;100.00
29315;BME280;16320;53.954;9.506;2023-08-08T09:35:00;100740.97;;;13.64;100.00
29315;BME280;16320;53.954;9.506;2023-08-08T09:38:05;100750.19;;;13.86;100.00
29315;BME280;16320;53.954;9.506;2023-08-08T09:41:13;100762.50;;;13.85;100.00
29315;BME280;16320;53.954;9.506;2023-08-08T09:44:26;100763.63;;;13.68;100.00
29315;BME280;16320;53.954;9.506;2023-08-08T09:47:31;100770.22;;;13.88;100.00
29315;BME280;16320;53.954;9.506;2023-08-08T09:50:36;100774.78;;;14.14;100.00
29315;BME280;16320;53.954;9.506;2023-08-08T09:53:42;100780.47;;;14.48;100.00
29315;BME280;16320;53.954;9.506;2023-08-08T09:56:50;100777.81;;;14.48;100.00
29315;BME280;16320;53.954;9.506;2023-08-08T09:59:56;100783.94;;;14.48;100.00
29315;BME280;16320;53.954;9.506;2023-08-08T10:16:09;100784.03;;;14.46;100.00
29315;BME280;16320;53.954;9.506;2023-08-08T10:19:21;100773.41;;;14.61;100.00
29315;BME280;16320;53.954;9.506;2023-08-08T10:22:29;100772.34;;;14.76;100.00
29315;BME280;16320;53.954;9.506;2023-08-08T10:25:34;100785.06;;;14.97;100.00
29315;BME280;16320;53.954;9.506;2023-08-08T10:28:58;100784.22;;;14.83;100.00
29315;BME280;16320;53.954;9.506;2023-08-08T10:32:06;100786.31;;;14.78;100.00
29315;BME280;16320;53.954;9.506;2023-08-08T10:38:38;100787.75;;;14.57;100.00
29315;BME280;16320;53.954;9.506;2023-08-08T10:41:49;100767.94;;;14.24;100.00
29315;BME280;16320;53.954;9.506;2023-08-08T10:44:59;100771.53;;;14.36;100.00
29315;BME280;16320;53.954;9.506;2023-08-08T10:48:09;100772.56;;;14.73;100.00
29315;BME280;16320;53.954;9.506;2023-08-08T10:51:14;100795.25;;;15.40;100.00
29315;BME280;16320;53.954;9.506;2023-08-08T10:54:24;100808.22;;;15.69;100.00
29315;BME280;16320;53.954;9.506;2023-08-08T10:57:33;100809.50;;;15.89;100.00
29315;BME280;16320;53.954;9.506;2023-08-08T11:00:39;100803.56;;;15.72;100.00
29315;BME280;16320;53.954;9.506;2023-08-08T11:03:45;100796.47;;;15.23;100.00
29315;BME280;16320;53.954;9.506;2023-08-08T11:06:53;100782.22;;;15.00;100.00
29315;BME280;16320;53.954;9.506;2023-08-08T11:10:00;100802.19;;;15.04;100.00
29315;BME280;16320;53.954;9.506;2023-08-08T11:13:07;100784.53;;;15.05;100.00
29315;BME280;16320;53.954;9.506;2023-08-08T11:16:14;100791.19;;;14.85;100.00
29315;BME280;16320;53.954;9.506;2023-08-08T11:19:19;100776.81;;;14.63;100.00
29315;BME280;16320;53.954;9.506;2023-08-08T11:22:43;100762.38;;;14.54;100.00
29315;BME280;16320;53.954;9.506;2023-08-08T11:27:04;100759.19;;;14.49;100.00
29315;BME280;16320;53.954;9.506;2023-08-08T11:31:22;100709.09;;;14.48;100.00
29315;BME280;16320;53.954;9.506;2023-08-08T11:35:33;100610.56;;;14.58;100.00
29315;BME280;16320;53.954;9.506;2023-08-08T11:42:51;100490.84;;;15.06;100.00
29315;BME280;16320;53.954;9.506;2023-08-08T11:46:46;100432.13;;;15.01;100.00
29315;BME280;16320;53.954;9.506;2023-08-08T11:49:52;100404.53;;;15.16;100.00
29315;BME280;16320;53.954;9.506;2023-08-08T11:53:02;100393.47;;;15.11;100.00
29315;BME280;16320;53.954;9.506;2023-08-08T11:56:24;100368.22;;;15.18;100.00
29315;BME280;16320;53.954;9.506;2023-08-08T11:59:35;100364.41;;;15.45;100.00
29315;BME280;16320;53.954;9.506;2023-08-08T12:02:52;100371.78;;;16.31;100.00
29315;BME280;16320;53.954;9.506;2023-08-08T12:06:45;100280.75;;;16.74;100.00
29315;BME280;16320;53.954;9.506;2023-08-08T12:10:20;100229.06;;;17.20;100.00
29315;BME280;16320;53.954;9.506;2023-08-08T12:13:41;100233.59;;;17.39;100.00
29315;BME280;16320;53.954;9.506;2023-08-08T12:16:47;100228.88;;;17.12;100.00
29315;BME280;16320;53.954;9.506;2023-08-08T12:20:20;100220.34;;;16.56;100.00
29315;BME280;16320;53.954;9.506;2023-08-08T12:23:45;100229.25;;;16.34;100.00
29315;BME280;16320;53.954;9.506;2023-08-08T12:26:50;100237.19;;;16.76;100.00
29315;BME280;16320;53.954;9.506;2023-08-08T12:29:54;100228.75;;;16.61;100.00
29315;BME280;16320;53.954;9.506;2023-08-08T12:33:00;100239.16;;;16.32;100.00
29315;BME280;16320;53.954;9.506;2023-08-08T12:36:05;100248.06;;;16.31;100.00
29315;BME280;16320;53.954;9.506;2023-08-08T12:39:10;100247.94;;;16.33;100.00
29315;BME280;16320;53.954;9.506;2023-08-08T12:42:15;100246.06;;;16.23;100.00
29315;BME280;16320;53.954;9.506;2023-08-08T12:45:20;100262.22;;;16.20;100.00
29315;BME280;16320;53.954;9.506;2023-08-08T12:48:24;100329.69;;;16.05;100.00
29315;BME280;16320;53.954;9.506;2023-08-08T12:51:29;100350.41;;;15.32;100.00
29315;BME280;16320;53.954;9.506;2023-08-08T12:54:33;100406.31;;;14.56;100.00
29315;BME280;16320;53.954;9.506;2023-08-08T12:57:38;100448.50;;;14.21;100.00
29315;BME280;16320;53.954;9.506;2023-08-08T13:00:43;100487.78;;;14.38;100.00
29315;BME280;16320;53.954;9.506;2023-08-08T13:04:11;100522.94;;;14.52;100.00
29315;BME280;16320;53.954;9.506;2023-08-08T13:07:23;100543.75;;;14.56;100.00
29315;BME280;16320;53.954;9.506;2023-08-08T13:10:29;100550.81;;;14.69;100.00
29315;BME280;16320;53.954;9.506;2023-08-08T13:13:35;100569.00;;;14.73;100.00
29315;BME280;16320;53.954;9.506;2023-08-08T13:16:39;100570.16;;;14.82;100.00
29315;BME280;16320;53.954;9.506;2023-08-08T13:19:45;100589.56;;;14.94;100.00
29315;BME280;16320;53.954;9.506;2023-08-08T13:22:50;100579.66;;;14.85;100.00
29315;BME280;16320;53.954;9.506;2023-08-08T13:25:54;100560.44;;;14.70;100.00
29315;BME280;16320;53.954;9.506;2023-08-08T13:28:59;100530.25;;;14.61;100.00
29315;BME280;16320;53.954;9.506;2023-08-08T13:32:04;100506.56;;;14.46;100.00
29315;BME280;16320;53.954;9.506;2023-08-08T13:35:09;100480.97;;;14.47;100.00
29315;BME280;16320;53.954;9.506;2023-08-08T13:38:13;100480.16;;;14.46;100.00
29315;BME280;16320;53.954;9.506;2023-08-08T13:41:19;100451.91;;;14.60;100.00
29315;BME280;16320;53.954;9.506;2023-08-08T13:44:23;100462.75;;;14.68;100.00
29315;BME280;16320;53.954;9.506;2023-08-08T13:47:28;100464.91;;;14.87;100.00
29315;BME280;16320;53.954;9.506;2023-08-08T13:50:33;100462.63;;;14.94;100.00
29315;BME280;16320;53.954;9.506;2023-08-08T13:53:37;100423.75;;;14.83;100.00
29315;BME280;16320;53.954;9.506;2023-08-08T13:56:41;100386.16;;;14.79;100.00
29315;BME280;16320;53.954;9.506;2023-08-08T13:59:46;100385.66;;;14.74;100.00
29315;BME280;16320;53.954;9.506;2023-08-08T14:02:50;100387.06;;;14.67;100.00
29315;BME280;16320;53.954;9.506;2023-08-08T14:05:55;100395.66;;;14.58;100.00
29315;BME280;16320;53.954;9.506;2023-08-08T14:09:00;100408.34;;;14.53;100.00
29315;BME280;16320;53.954;9.506;2023-08-08T14:12:05;100445.91;;;14.45;100.00
29315;BME280;16320;53.954;9.506;2023-08-08T14:15:09;100480.72;;;14.26;100.00
29315;BME280;16320;53.954;9.506;2023-08-08T14:18:14;100512.09;;;14.31;100.00
29315;BME280;16320;53.954;9.506;2023-08-08T14:21:19;100533.84;;;14.34;100.00
29315;BME280;16320;53.954;9.506;2023-08-08T14:24:24;100533.66;;;14.24;100.00
29315;BME280;16320;53.954;9.506;2023-08-08T14:27:29;100522.25;;;14.24;100.00
29315;BME280;16320;53.954;9.506;2023-08-08T14:30:33;100532.28;;;14.32;100.00
29315;BME280;16320;53.954;9.506;2023-08-08T14:33:37;100528.94;;;14.54;100.00
29315;BME280;16320;53.954;9.506;2023-08-08T14:36:42;100518.69;;;14.62;100.00
29315;BME280;16320;53.954;9.506;2023-08-08T14:39:47;100500.16;;;14.75;100.00
29315;BME280;16320;53.954;9.506;2023-08-08T14:42:51;100486.59;;;14.79;100.00
29315;BME280;16320;53.954;9.506;2023-08-08T14:45:59;100469.34;;;14.87;100.00
29315;BME280;16320;53.954;9.506;2023-08-08T14:49:04;100473.94;;;14.96;100.00
29315;BME280;16320;53.954;9.506;2023-08-08T14:52:10;100473.72;;;14.99;100.00
29315;BME280;16320;53.954;9.506;2023-08-08T14:55:16;100438.66;;;15.08;100.00
29315;BME280;16320;53.954;9.506;2023-08-08T14:58:21;100416.28;;;15.12;100.00
29315;BME280;16320;53.954;9.506;2023-08-08T15:01:28;100413.75;;;15.11;100.00
29315;BME280;16320;53.954;9.506;2023-08-08T15:04:33;100424.34;;;15.11;100.00
29315;BME280;16320;53.954;9.506;2023-08-08T15:07:37;100435.28;;;15.06;100.00
29315;BME280;16320;53.954;9.506;2023-08-08T15:10:42;100433.38;;;15.08;100.00
29315;BME280;16320;53.954;9.506;2023-08-08T15:13:46;100437.44;;;15.12;100.00
29315;BME280;16320;53.954;9.506;2023-08-08T15:16:53;100453.31;;;15.12;100.00
29315;BME280;16320;53.954;9.506;2023-08-08T15:19:58;100460.81;;;15.18;100.00
29315;BME280;16320;53.954;9.506;2023-08-08T15:23:02;100469.34;;;15.22;100.00
29315;BME280;16320;53.954;9.506;2023-08-08T15:26:07;100493.63;;;15.16;100.00
29315;BME280;16320;53.954;9.506;2023-08-08T15:29:12;100499.78;;;14.92;100.00
29315;BME280;16320;53.954;9.506;2023-08-08T15:32:16;100515.91;;;14.76;100.00
29315;BME280;16320;53.954;9.506;2023-08-08T15:35:20;100545.78;;;14.66;100.00
29315;BME280;16320;53.954;9.506;2023-08-08T15:38:25;100558.69;;;14.44;100.00
29315;BME280;16320;53.954;9.506;2023-08-08T15:41:29;100561.47;;;14.30;100.00
29315;BME280;16320;53.954;9.506;2023-08-08T15:44:33;100570.63;;;14.24;100.00
29315;BME280;16320;53.954;9.506;2023-08-08T15:47:38;100573.06;;;14.15;100.00
29315;BME280;16320;53.954;9.506;2023-08-08T15:50:43;100570.63;;;14.12;100.00
29315;BME280;16320;53.954;9.506;2023-08-08T15:53:48;100585.22;;;14.17;100.00
29315;BME280;16320;53.954;9.506;2023-08-08T15:56:53;100587.56;;;14.22;100.00
29315;BME280;16320;53.954;9.506;2023-08-08T15:59:57;100583.31;;;14.32;100.00
29315;BME280;16320;53.954;9.506;2023-08-08T16:03:02;100609.09;;;14.41;100.00
29315;BME280;16320;53.954;9.506;2023-08-08T16:06:07;100607.50;;;14.26;100.00
29315;BME280;16320;53.954;9.506;2023-08-08T16:09:11;100599.78;;;13.97;100.00
29315;BME280;16320;53.954;9.506;2023-08-08T16:12:16;100620.44;;;13.78;100.00
29315;BME280;16320;53.954;9.506;2023-08-08T16:15:20;100636.53;;;13.75;100.00
29315;BME280;16320;53.954;9.506;2023-08-08T16:18:25;100635.63;;;13.61;100.00
29315;BME280;16320;53.954;9.506;2023-08-08T16:21:29;100642.06;;;13.57;100.00
29315;BME280;16320;53.954;9.506;2023-08-08T16:24:34;100660.34;;;13.60;100.00
29315;BME280;16320;53.954;9.506;2023-08-08T16:27:38;100679.78;;;13.72;100.00
29315;BME280;16320;53.954;9.506;2023-08-08T16:30:44;100700.13;;;13.84;100.00
29315;BME280;16320;53.954;9.506;2023-08-08T16:33:49;100712.53;;;13.82;100.00